Weather observations for the past three days for
Monterey Regional Airport
Metric (Imperial)
Date Time (pdt) Wind (kph) Vis. (km) Weather Sky Cond. Temperature (ºC) Relative Humidity Wind Chill (°C) Heat Index (°C) Pressure Precipitation (cm)
Air Dwpt 6 hour altimeter (cm) sea level (mb) 1 hr 3 hr 6 hr
Max. Min.
02 09:54 Vrbl 9 16.09 Fair CLR 18.9 11.1 61% 76.4 1019.6
02 08:54 Calm 16.09 Fair CLR 18.3 10 59% 76.38 1019.2
02 07:54 NE 6 16.09 Fair CLR 16.7 8.9 60% 76.35 1019.1
02 06:54 E 6 16.09 Fair CLR 14.4 7.8 65% 76.33 1018.7
02 05:54 E 6 16.09 Fair CLR 15 8.3 64% 76.3 1018.3
02 04:54 E 9 16.09 Fair CLR 13.9 7.8 16.1 12.8 67% 76.3 1018.4
02 03:54 E 6 16.09 Fair CLR 13.3 7.8 70% 76.33 1018.7
02 02:54 E 6 16.09 Fair CLR 13.3 8.3 72% 76.3 1018.5
02 01:54 Calm 16.09 Fair CLR 14.4 8.9 70% 76.33 1018.5
02 00:54 Calm 16.09 Fair CLR 16.1 9.4 65% 76.33 1018.5
01 23:54 E 9 16.09 Fair CLR 14.4 10 75% 76.3 1018.5
01 22:54 E 11 16.09 Fair CLR 14.4 11.1 19.4 14.4 81% 76.35 1018.8
01 21:54 E 7 16.09 Fair CLR 15.6 11.7 78% 76.35 1019.1
01 20:54 S 6 16.09 Fair CLR 16.7 11.7 73% 76.33 1018.6
01 19:54 SW 11 16.09 Fair CLR 17.2 12.2 73% 76.3 1018.2
01 18:54 SW 11 16.09 Fair CLR 18.3 12.2 68% 76.28 1017.9
01 17:54 SW 17 16.09 Fair CLR 18.9 12.2 65% 76.28 1017.9
01 16:54 SW 22 16.09 Fair CLR 19.4 11.1 21.7 18.9 59% 76.28 1017.9
01 15:54 SW 17 G 30 16.09 Fair CLR 20.6 10 51% 76.28 1017.8
01 14:54 S 19 G 31 16.09 Fair CLR 20.6 10 51% 76.3 1018.1
01 13:54 Vrbl 11 16.09 Partly Cloudy SCT038 20.6 9.4 49% 76.3 1018.3
01 12:54 NW 13 16.09 Partly Cloudy SCT037 20 9.4 51% 76.33 1018.7
01 11:54 Vrbl 11 16.09 A Few Clouds FEW042 20 8.3 47% 76.35 1018.9
01 10:54 NW 11 16.09 A Few Clouds FEW041 18.9 8.3 19.4 15.6 50% 76.33 1018.5
01 09:54 Calm 16.09 Partly Cloudy SCT041 18.3 7.8 51% 76.3 1018.2
01 08:54 Calm 16.09 Mostly Cloudy BKN037 17.2 8.3 56% 76.28 1018.1
01 07:54 Vrbl 6 16.09 Overcast OVC036 16.1 8.9 63% 76.28 1017.8
01 06:54 SW 6 16.09 Overcast OVC033 16.1 9.4 65% 76.2 1017.0
01 05:54 SE 6 16.09 Overcast OVC034 15.6 8.9 65% 76.17 1016.6
01 04:54 Calm 16.09 Overcast OVC033 15.6 10 16.1 15.6 70% 76.17 1016.5
01 03:54 W 6 16.09 Overcast OVC032 15.6 11.1 75% 76.17 1016.5
01 02:54 SW 9 16.09 Overcast OVC029 16.1 10 67% 76.15 1016.3
01 01:54 S 6 16.09 Overcast OVC030 16.1 10 67% 76.15 1016.1
01 00:54 SW 6 16.09 Overcast OVC030 16.1 11.1 72% 76.15 1016.3
31 23:54 SW 9 16.09 Overcast FEW019 OVC025 16.1 11.7 75% 76.17 1016.4
31 22:54 SW 9 16.09 Mostly Cloudy BKN027 16.1 12.8 18.9 16.1 81% 76.17 1016.6
31 21:54 W 11 16.09 Overcast OVC028 16.1 12.8 81% 76.17 1016.7
31 20:54 SW 9 16.09 Mostly Cloudy BKN024 16.1 11.7 75% 76.12 1016.1
31 19:54 SW 11 16.09 Partly Cloudy SCT027 16.7 11.1 70% 76.1 1015.5
31 18:54 W 13 16.09 Mostly Cloudy BKN024 17.8 11.7 68% 76.1 1015.5
31 17:54 SW 20 16.09 Partly Cloudy SCT026 18.3 11.7 66% 76.1 1015.7
31 16:54 W 20 16.09 Partly Cloudy SCT026 18.9 11.1 19.4 16.1 61% 76.07 1015.4
31 15:54 W 19 16.09 Partly Cloudy SCT027 19.4 11.1 59% 76.1 1015.5
31 14:54 W 19 16.09 Partly Cloudy SCT027 18.9 11.1 61% 76.12 1016.0
31 13:54 W 19 16.09 Mostly Cloudy BKN026 18.3 11.1 63% 76.17 1016.6
31 12:54 NW 17 16.09 Mostly Cloudy BKN026 17.8 11.1 65% 76.17 1016.6
31 11:54 Vrbl 6 16.09 Overcast OVC022 16.7 10.6 67% 76.2 1017.0
31 10:54 NW 7 16.09 Overcast OVC019 16.1 11.1 16.1 13.9 72% 76.2 1017.2
31 09:54 W 9 16.09 Overcast OVC020 16.1 11.1 72% 76.17 1016.8
31 08:54 W 6 16.09 Overcast OVC020 15.6 10.6 72% 76.17 1016.6
31 07:54 Calm 16.09 Overcast OVC020 15.6 11.1 75% 76.12 1016.1
31 06:54 S 7 16.09 Overcast OVC017 15 11.1 78% 76.1 1015.7
31 05:54 SW 7 16.09 Overcast OVC012 14.4 11.1 81% 76.07 1015.4
31 04:54 SW 11 16.09 Overcast OVC010 13.9 11.1 14.4 13.3 83% 76.05 1015.2
31 03:54 Vrbl 6 16.09 Overcast OVC010 13.9 11.7 87% 76.05 1015.1
31 02:54 SW 15 16.09 Overcast OVC009 13.9 11.7 87% 76.05 1015.2
31 01:54 SW 13 14.48 Overcast OVC006 13.3 11.7 90% 76.05 1015.1
31 00:54 SW 11 16.09 Overcast OVC008 13.9 11.7 87% 76.05 1015.2
30 23:54 SW 11 16.09 Overcast OVC008 14.4 11.7 84% 76.05 1015.1
30 22:54 SW 11 16.09 Overcast OVC009 14.4 12.2 18.3 14.4 87% 76.05 1015.1
30 21:54 SW 11 16.09 Overcast OVC009 14.4 12.2 87% 76.1 1015.6
30 20:54 W 9 16.09 Overcast OVC010 15 12.2 83% 76.05 1015.2
30 19:54 W 15 16.09 Overcast OVC012 15.6 12.2 80% 76.05 1014.9
30 18:54 SW 19 16.09 Overcast OVC013 16.1 12.2 78% 76.05 1015.0
30 17:54 W 15 16.09 Overcast OVC014 16.7 12.2 75% 76.05 1015.0
30 16:54 W 19 16.09 Partly Cloudy SCT019 17.8 12.2 18.9 16.1 70% 76.05 1015.1
30 15:54 W 20 16.09 Fair CLR 18.3 12.2 68% 76.07 1015.3
30 14:54 W 20 16.09 Fair CLR 18.3 11.7 66% 76.12 1016.0
30 13:54 NW 19 16.09 Fair CLR 17.8 11.7 68% 76.15 1016.5
30 12:54 W 19 16.09 Fair CLR 17.8 11.7 68% 76.17 1016.5
30 11:54 W 15 16.09 Partly Cloudy SCT016 17.2 11.7 70% 76.2 1017.1
30 10:54 NW 9 16.09 Overcast OVC014 15.6 11.7 16.1 14.4 78% 76.23 1017.3
Date Time (pdt) Wind (kph) Vis. (km) Weather Sky Cond. Air Dwpt Max. Min. Relative Humidity Wind Chill (°C) Heat Index (°C) altimeter (cm) sea level (mb) 1 hr 3 hr 6 hr
6 hour
Temperature (ºC) Pressure Precipitation (cm)